Time;durP1;ratioP1;P1;durP2;ratioP2;P2;SDS_P1;SDS_P2;PMS_P1;PMS_P2;Temp;Humidity;BMP_temperature;BMP_pressure;BME280_temperature;BME280_humidity;BME280_pressure;Samples;Min_cycle;Max_cycle;Signal;HPM_P1;HPM_P2
2022/06/06 00:00:13;;;;;;;47.70;17.70;;;;;17.70;100665.00;;;;5001481;28;21546;-68
2022/06/06 00:02:59;;;;;;;45.93;16.87;;;;;17.70;100672.00;;;;5003559;28;20230;-68
2022/06/06 00:05:49;;;;;;;44.63;17.83;;;;;17.80;100673.00;;;;4989827;28;20410;-68
2022/06/06 00:08:36;;;;;;;50.63;18.87;;;;;17.80;100665.00;;;;4996415;28;20304;-68
2022/06/06 00:11:22;;;;;;;49.00;19.27;;;;;17.80;100673.00;;;;5004158;28;20268;-70
2022/06/06 00:14:10;;;;;;;53.43;20.40;;;;;17.70;100668.00;;;;5004347;28;20312;-67
2022/06/06 00:16:56;;;;;;;48.93;19.47;;;;;17.60;100686.00;;;;5004517;28;20242;-72
2022/06/06 00:19:43;;;;;;;51.37;20.50;;;;;17.50;100678.00;;;;5001949;28;20245;-70
2022/06/06 00:22:31;;;;;;;54.77;20.47;;;;;17.50;100678.00;;;;4996153;28;20218;-67
2022/06/06 00:25:17;;;;;;;58.40;21.13;;;;;17.40;100681.00;;;;5002094;28;20221;-67
2022/06/06 00:28:03;;;;;;;65.40;23.10;;;;;17.60;100675.00;;;;4999159;28;20581;-69
2022/06/06 00:30:56;;;;;;;58.70;21.60;;;;;17.50;100682.00;;;;4998222;28;20237;-67
2022/06/06 00:36:46;;;;;;;60.17;23.37;;;;;17.40;100689.00;;;;4988934;28;20262;-71
2022/06/06 00:39:34;;;;;;;54.03;21.23;;;;;17.40;100690.00;;;;5002641;28;20218;-65
2022/06/06 00:42:24;;;;;;;50.20;20.17;;;;;17.30;100690.00;;;;4996878;28;20275;-68
2022/06/06 00:45:29;;;;;;;47.10;19.20;;;;;17.30;100710.00;;;;5000649;28;20238;-68
2022/06/06 00:48:21;;;;;;;49.93;18.23;;;;;17.30;100713.00;;;;4999587;28;20225;-69
2022/06/06 00:51:11;;;;;;;51.23;17.60;;;;;17.20;100700.00;;;;5004759;28;20238;-66
2022/06/06 00:53:58;;;;;;;42.47;16.93;;;;;17.20;100719.00;;;;5002842;28;20240;-68
2022/06/06 00:56:49;;;;;;;48.33;17.07;;;;;17.10;100712.00;;;;5003111;28;20385;-66
2022/06/06 00:59:39;;;;;;;42.80;16.73;;;;;17.00;100706.00;;;;5005057;28;20296;-67
2022/06/06 01:02:25;;;;;;;38.57;15.23;;;;;17.10;100710.00;;;;4998014;28;20292;-68
2022/06/06 01:05:12;;;;;;;30.70;12.90;;;;;17.10;100704.00;;;;4997403;28;20302;-69
2022/06/06 01:07:58;;;;;;;26.70;12.30;;;;;17.00;100691.00;;;;4999010;28;20308;-67
2022/06/06 01:10:45;;;;;;;25.87;11.87;;;;;16.80;100713.00;;;;5001240;28;20724;-69
2022/06/06 01:13:34;;;;;;;32.67;12.47;;;;;16.90;100706.00;;;;5001387;28;20236;-67
2022/06/06 01:16:35;;;;;;;32.70;12.40;;;;;16.90;100704.00;;;;5002956;28;20232;-68
2022/06/06 01:19:50;;;;;;;28.73;11.50;;;;;16.90;100700.00;;;;5001501;28;20581;-68
2022/06/06 01:23:11;;;;;;;32.83;12.93;;;;;16.90;100701.00;;;;5000708;28;20540;-66
2022/06/06 01:26:20;;;;;;;35.27;13.03;;;;;16.90;100696.00;;;;5001764;28;20233;-68
2022/06/06 01:29:11;;;;;;;26.43;11.73;;;;;16.90;100705.00;;;;5003300;28;20656;-67
2022/06/06 01:32:03;;;;;;;35.13;13.07;;;;;16.90;100710.00;;;;5002778;28;20580;-69
2022/06/06 01:34:55;;;;;;;39.07;14.03;;;;;16.80;100719.00;;;;5003122;28;20310;-69
2022/06/06 01:37:43;;;;;;;35.50;12.43;;;;;16.80;100724.00;;;;4998013;28;20324;-67
2022/06/06 01:40:36;;;;;;;38.47;13.23;;;;;16.90;100716.00;;;;5001084;28;20293;-67
2022/06/06 01:43:29;;;;;;;36.20;14.37;;;;;16.90;100713.00;;;;5001002;28;20261;-67
2022/06/06 01:46:23;;;;;;;37.77;14.00;;;;;16.80;100726.00;;;;5006317;28;20245;-70
2022/06/06 01:49:12;;;;;;;33.60;12.67;;;;;16.90;100710.00;;;;5007818;28;20222;-67
2022/06/06 01:52:01;;;;;;;31.47;13.10;;;;;16.80;100723.00;;;;5003341;28;20714;-68
2022/06/06 01:54:48;;;;;;;30.00;13.00;;;;;16.80;100710.00;;;;5006524;28;20234;-69
2022/06/06 01:57:34;;;;;;;35.47;12.40;;;;;16.80;100717.00;;;;4999183;28;20234;-68
2022/06/06 02:00:21;;;;;;;35.80;12.67;;;;;16.70;100721.00;;;;5006038;28;20754;-66
2022/06/06 02:03:09;;;;;;;35.13;12.57;;;;;16.70;100723.00;;;;4992556;28;20237;-68
2022/06/06 02:05:56;;;;;;;41.37;11.73;;;;;16.80;100726.00;;;;5006452;28;20254;-68
2022/06/06 02:08:43;;;;;;;34.20;11.87;;;;;16.80;100722.00;;;;5006778;28;20246;-71
2022/06/06 02:11:29;;;;;;;33.67;11.80;;;;;16.80;100713.00;;;;5005246;28;20680;-68
2022/06/06 02:14:16;;;;;;;26.27;11.77;;;;;16.70;100716.00;;;;5001206;28;20225;-72
2022/06/06 02:17:02;;;;;;;36.07;13.37;;;;;16.70;100724.00;;;;4999052;28;20233;-68
2022/06/06 02:19:50;;;;;;;33.60;12.17;;;;;16.70;100710.00;;;;5004786;28;20277;-69
2022/06/06 02:22:37;;;;;;;30.67;12.57;;;;;16.70;100723.00;;;;5004097;28;20235;-71
2022/06/06 02:25:24;;;;;;;26.87;11.13;;;;;16.80;100724.00;;;;5000604;28;20226;-70
2022/06/06 02:28:11;;;;;;;35.03;11.30;;;;;16.70;100723.00;;;;5006516;28;20599;-69
2022/06/06 02:30:58;;;;;;;32.60;11.47;;;;;16.80;100727.00;;;;5007602;28;20288;-70
2022/06/06 02:33:45;;;;;;;33.13;11.67;;;;;16.70;100741.00;;;;5007523;28;20302;-68
2022/06/06 02:36:35;;;;;;;28.23;11.10;;;;;16.70;100737.00;;;;5002449;28;20226;-69
2022/06/06 02:39:21;;;;;;;29.83;11.27;;;;;16.60;100737.00;;;;4994017;28;20368;-67
2022/06/06 02:42:08;;;;;;;39.80;12.17;;;;;16.60;100735.00;;;;5005993;28;20240;-68
2022/06/06 02:44:54;;;;;;;33.20;11.63;;;;;16.70;100739.00;;;;5001330;28;20237;-69
2022/06/06 02:47:40;;;;;;;33.70;11.97;;;;;16.70;100740.00;;;;5003829;28;20292;-68
2022/06/06 02:50:29;;;;;;;28.17;12.47;;;;;16.80;100737.00;;;;5000008;28;20363;-70
2022/06/06 02:53:17;;;;;;;28.40;11.87;;;;;16.60;100746.00;;;;4994456;28;20285;-70
2022/06/06 02:56:04;;;;;;;31.07;11.93;;;;;16.50;100740.00;;;;4993064;28;20229;-71
2022/06/06 02:58:54;;;;;;;33.83;12.83;;;;;16.60;100745.00;;;;5005896;28;20232;-70
2022/06/06 03:01:40;;;;;;;34.07;13.40;;;;;16.60;100741.00;;;;5000515;28;20244;-71
2022/06/06 03:04:27;;;;;;;29.33;12.33;;;;;16.50;100736.00;;;;5000522;28;20234;-69
2022/06/06 03:07:23;;;;;;;29.83;12.83;;;;;16.50;100738.00;;;;5002444;28;20260;-71
2022/06/06 03:10:21;;;;;;;34.90;13.30;;;;;16.60;100749.00;;;;4999957;28;20228;-70
2022/06/06 03:13:22;;;;;;;33.63;13.43;;;;;16.50;100743.00;;;;5002198;28;20229;-70
2022/06/06 03:23:01;;;;;;;37.23;13.47;;;;;16.50;100753.00;;;;5004008;28;20244;-71
2022/06/06 03:25:56;;;;;;;35.57;13.40;;;;;16.50;100748.00;;;;5007016;28;20237;-70
2022/06/06 03:28:59;;;;;;;36.33;12.83;;;;;16.50;100744.00;;;;5006779;28;20245;-68
2022/06/06 03:31:55;;;;;;;34.23;13.00;;;;;16.60;100751.00;;;;5003786;28;20252;-68
2022/06/06 03:34:51;;;;;;;31.63;12.33;;;;;16.60;100739.00;;;;5000080;28;20233;-69
2022/06/06 03:37:45;;;;;;;36.43;14.40;;;;;16.60;100749.00;;;;4999811;28;20238;-69
2022/06/06 03:40:40;;;;;;;33.73;13.40;;;;;16.50;100749.00;;;;4994766;28;20227;-67
2022/06/06 03:43:33;;;;;;;35.20;13.17;;;;;16.60;100740.00;;;;5000365;28;20285;-67
2022/06/06 03:46:29;;;;;;;35.53;13.80;;;;;16.60;100737.00;;;;4997404;28;20228;-69
2022/06/06 03:49:22;;;;;;;33.57;13.63;;;;;16.50;100740.00;;;;4995457;28;20781;-68
2022/06/06 03:52:16;;;;;;;34.33;13.33;;;;;16.50;100731.00;;;;5002479;28;20767;-71
2022/06/06 03:55:10;;;;;;;32.73;12.33;;;;;16.60;100739.00;;;;5004357;28;20230;-70
2022/06/06 03:57:57;;;;;;;36.33;13.30;;;;;16.60;100745.00;;;;5002781;28;20604;-68
2022/06/06 04:00:46;;;;;;;34.03;14.23;;;;;16.60;100756.00;;;;5004602;28;20837;-70
2022/06/06 04:03:34;;;;;;;31.93;13.60;;;;;16.50;100745.00;;;;4993990;28;20596;-68
2022/06/06 04:06:21;;;;;;;36.43;13.60;;;;;16.60;100749.00;;;;4994858;28;20244;-69
2022/06/06 04:09:07;;;;;;;33.37;13.17;;;;;16.60;100748.00;;;;4992855;28;20699;-70
2022/06/06 04:12:05;;;;;;;32.33;13.37;;;;;16.60;100747.00;;;;5003659;28;20729;-68
2022/06/06 04:15:01;;;;;;;31.13;12.23;;;;;16.70;100756.00;;;;4999314;28;20232;-69
2022/06/06 04:18:05;;;;;;;26.20;11.47;;;;;16.60;100753.00;;;;5002963;28;20297;-69
2022/06/06 04:21:02;;;;;;;26.97;10.90;;;;;16.70;100750.00;;;;4993057;28;20257;-69
2022/06/06 04:24:09;;;;;;;31.97;13.13;;;;;16.70;100759.00;;;;5001343;28;20234;-68
2022/06/06 04:27:02;;;;;;;28.80;12.67;;;;;16.60;100757.00;;;;5002801;28;20228;-69
2022/06/06 04:29:58;;;;;;;31.87;13.10;;;;;16.70;100760.00;;;;5000512;28;20234;-68
2022/06/06 04:33:03;;;;;;;31.33;12.27;;;;;16.70;100768.00;;;;4998505;28;20300;-70
2022/06/06 04:36:02;;;;;;;31.00;12.37;;;;;16.70;100765.00;;;;4993947;28;20260;-70
2022/06/06 04:38:56;;;;;;;28.60;13.13;;;;;16.80;100760.00;;;;5000563;28;20631;-71
2022/06/06 04:41:46;;;;;;;30.60;12.37;;;;;16.70;100756.00;;;;5000945;28;20283;-67
2022/06/06 04:44:39;;;;;;;31.27;12.03;;;;;16.80;100766.00;;;;5005932;28;20232;-67
2022/06/06 04:47:32;;;;;;;32.37;12.50;;;;;16.80;100751.00;;;;5004373;28;21080;-71
2022/06/06 04:50:21;;;;;;;31.07;12.50;;;;;16.80;100752.00;;;;5002473;28;20227;-67
2022/06/06 04:53:11;;;;;;;27.27;11.27;;;;;16.80;100751.00;;;;5002831;28;20226;-67
2022/06/06 04:55:57;;;;;;;30.73;13.03;;;;;16.80;100745.00;;;;4999880;28;20296;-69
2022/06/06 04:58:46;;;;;;;28.17;11.13;;;;;16.90;100753.00;;;;4999868;28;20317;-69
2022/06/06 05:01:33;;;;;;;26.53;11.07;;;;;16.80;100755.00;;;;5005004;28;20228;-70
2022/06/06 05:04:19;;;;;;;22.17;10.53;;;;;17.00;100757.00;;;;4996470;28;20365;-71
2022/06/06 05:07:28;;;;;;;25.43;9.40;;;;;17.00;100756.00;;;;4977542;28;20341;-68
2022/06/06 05:10:26;;;;;;;18.83;8.53;;;;;17.10;100756.00;;;;5004962;28;20226;-70
2022/06/06 05:13:39;;;;;;;19.20;8.40;;;;;17.10;100760.00;;;;4996906;28;20253;-69
2022/06/06 05:17:01;;;;;;;18.07;9.03;;;;;17.10;100760.00;;;;4996498;28;20364;-70
2022/06/06 05:20:01;;;;;;;19.93;7.63;;;;;17.20;100762.00;;;;4997772;28;20350;-70
2022/06/06 05:23:06;;;;;;;13.97;6.60;;;;;17.20;100763.00;;;;5007768;28;20292;-69
2022/06/06 05:26:12;;;;;;;14.03;7.17;;;;;17.30;100763.00;;;;5005628;28;20217;-71
2022/06/06 05:29:16;;;;;;;14.20;7.53;;;;;17.30;100783.00;;;;5005979;28;20226;-71
2022/06/06 05:32:28;;;;;;;18.43;7.23;;;;;17.20;100789.00;;;;4999714;28;20226;-67
2022/06/06 05:35:22;;;;;;;14.47;7.10;;;;;17.30;100792.00;;;;5005042;28;20304;-69
2022/06/06 05:38:21;;;;;;;17.60;6.63;;;;;17.30;100784.00;;;;5004261;28;20366;-71
2022/06/06 05:41:15;;;;;;;16.97;7.17;;;;;17.20;100790.00;;;;5005033;28;20234;-67
2022/06/06 05:44:11;;;;;;;18.43;7.70;;;;;17.30;100781.00;;;;5006836;28;20226;-69
2022/06/06 05:47:02;;;;;;;13.53;6.77;;;;;17.40;100791.00;;;;5005875;28;20233;-66
2022/06/06 05:50:04;;;;;;;17.37;6.93;;;;;17.30;100785.00;;;;5003734;28;20230;-71
2022/06/06 05:53:25;;;;;;;12.73;6.40;;;;;17.30;100789.00;;;;5003881;28;20233;-71
2022/06/06 05:56:42;;;;;;;14.33;6.63;;;;;17.40;100793.00;;;;4999608;28;20226;-71
2022/06/06 05:59:50;;;;;;;10.03;5.40;;;;;17.40;100791.00;;;;5005434;28;20233;-68
2022/06/06 06:03:18;;;;;;;11.83;5.70;;;;;17.50;100786.00;;;;5002255;28;20759;-71
2022/06/06 06:06:21;;;;;;;9.10;4.80;;;;;17.60;100780.00;;;;4998400;28;20764;-67
2022/06/06 06:09:23;;;;;;;11.03;5.27;;;;;17.70;100797.00;;;;5006698;28;20225;-71
2022/06/06 06:12:25;;;;;;;9.20;5.00;;;;;17.80;100786.00;;;;5002787;28;20295;-73
2022/06/06 06:15:20;;;;;;;10.83;5.13;;;;;17.80;100792.00;;;;4995066;28;20225;-71
2022/06/06 06:18:10;;;;;;;9.83;5.33;;;;;17.70;100784.00;;;;4997643;28;20278;-69
2022/06/06 06:21:02;;;;;;;9.23;4.80;;;;;17.70;100794.00;;;;5003356;28;20245;-68
2022/06/06 06:23:53;;;;;;;13.00;5.67;;;;;17.70;100793.00;;;;5002087;28;20305;-67
2022/06/06 06:26:40;;;;;;;16.40;8.67;;;;;17.70;100821.00;;;;5003303;28;20239;-69
2022/06/06 06:29:27;;;;;;;11.83;5.63;;;;;17.80;100818.00;;;;5001123;28;20225;-70
2022/06/06 06:32:34;;;;;;;7.40;4.77;;;;;17.90;100807.00;;;;5002998;28;20229;-70
2022/06/06 06:35:26;;;;;;;10.10;4.67;;;;;17.90;100820.00;;;;5008977;28;20225;-68
2022/06/06 06:38:28;;;;;;;8.10;4.60;;;;;17.90;100820.00;;;;5004097;28;20250;-70
2022/06/06 06:41:25;;;;;;;7.00;4.30;;;;;18.00;100829.00;;;;5001876;28;20253;-68
2022/06/06 06:44:15;;;;;;;8.43;4.53;;;;;18.00;100834.00;;;;5004656;28;20774;-68
2022/06/06 06:47:10;;;;;;;7.77;4.17;;;;;17.90;100829.00;;;;5003729;28;20293;-69
2022/06/06 06:50:05;;;;;;;9.40;4.10;;;;;17.80;100816.00;;;;4995734;28;20741;-68
2022/06/06 06:53:04;;;;;;;6.60;4.47;;;;;17.90;100845.00;;;;4999883;28;20242;-70
2022/06/06 06:55:59;;;;;;;7.47;3.93;;;;;18.00;100843.00;;;;5004430;28;20230;-67
2022/06/06 06:58:53;;;;;;;5.97;3.60;;;;;18.00;100845.00;;;;5004729;28;20789;-69
2022/06/06 07:08:33;;;;;;;6.47;3.90;;;;;18.20;100844.00;;;;5003247;28;20313;-68
2022/06/06 07:11:36;;;;;;;5.57;3.43;;;;;18.40;100838.00;;;;4999672;28;20637;-69
2022/06/06 07:14:40;;;;;;;5.27;3.17;;;;;18.30;100855.00;;;;5005912;28;20350;-67
2022/06/06 07:17:29;;;;;;;4.60;3.10;;;;;18.30;100850.00;;;;5006370;28;20253;-70
2022/06/06 07:20:19;;;;;;;5.20;3.20;;;;;18.10;100849.00;;;;5005747;28;20256;-69
2022/06/06 07:23:11;;;;;;;5.00;3.60;;;;;18.00;100859.00;;;;4997157;28;20646;-66
2022/06/06 07:25:57;;;;;;;5.40;3.47;;;;;18.20;100857.00;;;;4996354;28;20254;-67
2022/06/06 07:28:44;;;;;;;2.90;2.50;;;;;18.20;100854.00;;;;4990114;28;20317;-67
2022/06/06 07:31:44;;;;;;;5.03;2.67;;;;;18.40;100844.00;;;;4993364;28;20357;-68
2022/06/06 07:34:58;;;;;;;4.73;2.77;;;;;18.40;100844.00;;;;4996146;28;20227;-67
2022/06/06 07:38:00;;;;;;;3.93;2.80;;;;;18.40;100839.00;;;;4997730;28;20335;-71
2022/06/06 07:41:05;;;;;;;4.97;3.13;;;;;18.40;100843.00;;;;4999796;28;20242;-69
2022/06/06 07:44:05;;;;;;;4.03;3.10;;;;;18.60;100852.00;;;;4998283;28;20697;-68
2022/06/06 07:47:01;;;;;;;4.97;3.37;;;;;18.70;100852.00;;;;5000659;28;20766;-71
2022/06/06 07:49:54;;;;;;;4.47;3.43;;;;;18.80;100862.00;;;;5004134;28;20237;-70
2022/06/06 07:52:45;;;;;;;6.00;3.97;;;;;19.00;100855.00;;;;5000444;28;20820;-69
2022/06/06 07:55:39;;;;;;;7.60;4.07;;;;;19.10;100853.00;;;;5005248;28;20679;-71
2022/06/06 07:58:33;;;;;;;6.10;3.93;;;;;18.90;100860.00;;;;5004455;28;20373;-70
2022/06/06 08:01:29;;;;;;;6.83;3.63;;;;;19.00;100858.00;;;;5001427;28;20237;-70
2022/06/06 08:04:25;;;;;;;5.57;3.70;;;;;19.00;100854.00;;;;5003016;28;20237;-70
2022/06/06 08:07:20;;;;;;;5.77;3.67;;;;;19.20;100853.00;;;;5002304;28;20242;-70
2022/06/06 08:10:18;;;;;;;6.10;3.37;;;;;19.30;100851.00;;;;5004698;28;20771;-70
2022/06/06 08:13:32;;;;;;;6.37;3.43;;;;;19.30;100835.00;;;;5003466;28;20238;-69
2022/06/06 08:16:24;;;;;;;4.60;3.20;;;;;19.30;100853.00;;;;4994863;28;20234;-69
2022/06/06 08:19:29;;;;;;;4.87;3.00;;;;;19.20;100852.00;;;;5000732;28;20231;-69
2022/06/06 08:22:17;;;;;;;5.20;2.60;;;;;19.30;100844.00;;;;5005298;28;20233;-68
2022/06/06 08:25:07;;;;;;;4.40;2.60;;;;;19.30;100852.00;;;;5004451;28;20853;-68
2022/06/06 08:27:53;;;;;;;4.77;2.33;;;;;19.50;100844.00;;;;4999886;28;20254;-69
2022/06/06 08:30:43;;;;;;;2.60;2.17;;;;;19.80;100843.00;;;;4997002;28;20778;-69
2022/06/06 08:33:29;;;;;;;2.33;2.07;;;;;19.70;100836.00;;;;4996329;28;20713;-70
2022/06/06 08:36:32;;;;;;;2.40;1.80;;;;;19.90;100843.00;;;;5001329;28;20234;-68
2022/06/06 08:39:26;;;;;;;3.07;2.03;;;;;20.00;100847.00;;;;5000346;28;20238;-68
2022/06/06 08:42:40;;;;;;;4.40;2.00;;;;;20.10;100853.00;;;;4989348;28;20230;-68
2022/06/06 08:45:48;;;;;;;4.87;2.33;;;;;20.10;100851.00;;;;5005743;28;20226;-71
2022/06/06 08:48:41;;;;;;;3.60;2.53;;;;;20.10;100854.00;;;;5024058;28;20241;-72
2022/06/06 08:51:48;;;;;;;2.80;1.90;;;;;20.50;100857.00;;;;5023328;28;20242;-73
2022/06/06 08:55:00;;;;;;;3.67;2.37;;;;;20.60;100858.00;;;;5027036;28;20259;-74
2022/06/06 08:58:02;;;;;;;3.60;1.80;;;;;20.80;100852.00;;;;5026927;28;20225;-72
2022/06/06 09:00:57;;;;;;;2.23;1.90;;;;;20.30;100852.00;;;;5034137;28;20224;-71
2022/06/06 09:04:14;;;;;;;2.73;1.73;;;;;20.10;100859.00;;;;5019329;28;20241;-72
2022/06/06 09:07:55;;;;;;;3.20;1.80;;;;;20.50;100855.00;;;;5022996;28;20234;-69
2022/06/06 09:11:19;;;;;;;6.90;1.40;;;;;20.50;100855.00;;;;4997262;28;20265;-70
2022/06/06 09:14:46;;;;;;;1.43;1.33;;;;;20.60;100865.00;;;;5002900;28;20225;-70
2022/06/06 09:18:04;;;;;;;1.77;1.67;;;;;20.60;100853.00;;;;4995600;28;20253;-70
2022/06/06 09:21:06;;;;;;;1.77;1.50;;;;;20.60;100863.00;;;;5000878;28;21018;-69
2022/06/06 09:24:24;;;;;;;1.73;1.33;;;;;20.80;100855.00;;;;5004438;28;20237;-70
2022/06/06 09:27:45;;;;;;;1.83;1.60;;;;;21.20;100861.00;;;;4996106;28;20438;-69
2022/06/06 09:31:04;;;;;;;2.47;1.80;;;;;21.60;100869.00;;;;5003716;28;20233;-71
2022/06/06 09:34:15;;;;;;;2.60;2.03;;;;;21.50;100862.00;;;;4997542;28;20230;-68
2022/06/06 09:37:06;;;;;;;2.37;2.00;;;;;21.40;100874.00;;;;5003041;28;20230;-69
2022/06/06 09:39:56;;;;;;;2.50;1.83;;;;;21.40;100876.00;;;;4998012;28;20269;-70
2022/06/06 09:43:01;;;;;;;3.00;1.60;;;;;21.40;100869.00;;;;4990987;28;20327;-68
2022/06/06 09:46:28;;;;;;;3.17;1.60;;;;;21.40;100873.00;;;;4997655;28;20226;-66
2022/06/06 09:49:47;;;;;;;2.67;1.80;;;;;21.40;100881.00;;;;4984876;28;20606;-68
2022/06/06 09:53:13;;;;;;;3.10;1.83;;;;;21.80;100863.00;;;;4997891;28;20349;-69
2022/06/06 10:00:07;;;;;;;2.23;1.67;;;;;21.70;100876.00;;;;4988210;28;20282;-69
2022/06/06 10:03:32;;;;;;;2.97;1.93;;;;;21.30;100871.00;;;;5003531;28;20234;-67
2022/06/06 10:06:53;;;;;;;2.90;1.90;;;;;21.00;100868.00;;;;4992356;28;20297;-67
2022/06/06 10:10:03;;;;;;;1.60;1.50;;;;;21.10;100866.00;;;;5003310;28;20238;-67
2022/06/06 10:13:18;;;;;;;2.77;1.63;;;;;21.50;100860.00;;;;4976243;28;20243;-70
2022/06/06 10:16:22;;;;;;;2.77;1.40;;;;;21.90;100870.00;;;;4996933;28;20226;-68
2022/06/06 10:19:50;;;;;;;1.50;1.10;;;;;22.00;100855.00;;;;5003960;28;20225;-68
2022/06/06 10:23:06;;;;;;;1.87;1.20;;;;;21.90;100862.00;;;;4989149;28;20244;-71
2022/06/06 10:26:15;;;;;;;2.53;1.23;;;;;21.90;100844.00;;;;5006842;28;20363;-67
2022/06/06 10:33:00;;;;;;;1.50;1.23;;;;;22.70;100843.00;;;;4981670;28;20241;-68
2022/06/06 10:35:55;;;;;;;1.67;1.10;;;;;22.80;100837.00;;;;4998609;28;20235;-68
2022/06/06 10:39:05;;;;;;;2.80;1.30;;;;;23.00;100836.00;;;;5005232;28;20236;-67
2022/06/06 10:42:24;;;;;;;1.40;1.30;;;;;23.10;100829.00;;;;5004488;28;20243;-67
2022/06/06 10:45:25;;;;;;;1.13;1.00;;;;;22.80;100848.00;;;;4997830;28;20329;-69
2022/06/06 10:48:24;;;;;;;1.77;1.10;;;;;22.80;100838.00;;;;4992776;28;20298;-69
2022/06/06 10:51:47;;;;;;;1.60;1.30;;;;;22.80;100844.00;;;;5001786;28;20819;-68
2022/06/06 10:55:06;;;;;;;0.90;0.90;;;;;22.90;100853.00;;;;5002147;28;20330;-69
2022/06/06 10:58:28;;;;;;;1.00;1.00;;;;;22.80;100866.00;;;;4996966;28;20261;-72
2022/06/06 11:01:48;;;;;;;1.00;0.90;;;;;22.20;100864.00;;;;5002325;28;20925;-67
2022/06/06 11:05:05;;;;;;;0.80;0.80;;;;;21.50;100874.00;;;;5000645;28;20224;-68
2022/06/06 11:08:26;;;;;;;0.90;0.90;;;;;21.00;100882.00;;;;5006406;28;20235;-68
2022/06/06 11:11:47;;;;;;;1.03;0.80;;;;;20.40;100879.00;;;;5005252;28;20759;-68
2022/06/06 11:14:38;;;;;;;3.33;0.83;;;;;20.00;100875.00;;;;5001468;28;20251;-67
2022/06/06 11:17:47;;;;;;;1.27;0.80;;;;;19.50;100886.00;;;;5003307;28;20840;-68
2022/06/06 11:21:03;;;;;;;3.33;2.13;;;;;19.00;100898.00;;;;5005048;28;20370;-69
2022/06/06 11:24:07;;;;;;;3.13;1.13;;;;;18.70;100890.00;;;;4996608;28;22533;-69
2022/06/06 11:27:17;;;;;;;0.80;0.80;;;;;18.60;100891.00;;;;5003101;28;20261;-70
2022/06/06 11:30:20;;;;;;;0.60;0.60;;;;;18.40;100905.00;;;;5002615;28;20277;-70
2022/06/06 11:33:43;;;;;;;1.73;1.00;;;;;18.30;100923.00;;;;4998677;28;20323;-75
2022/06/06 11:37:18;;;;;;;1.50;0.93;;;;;18.10;100932.00;;;;5000210;28;20392;-66
2022/06/06 11:40:25;;;;;;;1.53;1.00;;;;;18.10;100919.00;;;;5001544;28;20230;-67
2022/06/06 11:43:32;;;;;;;1.43;1.10;;;;;18.40;100910.00;;;;5001365;28;20357;-68
2022/06/06 11:47:06;;;;;;;0.80;0.80;;;;;18.90;100891.00;;;;5002772;28;20222;-67
2022/06/06 11:50:26;;;;;;;1.20;1.10;;;;;20.10;100895.00;;;;4989901;28;20226;-67
2022/06/06 11:53:54;;;;;;;0.90;0.90;;;;;20.20;100880.00;;;;4997331;28;20308;-68
2022/06/06 11:57:06;;;;;;;1.00;1.00;;;;;20.40;100882.00;;;;4997254;28;20300;-66
2022/06/06 12:00:11;;;;;;;2.10;1.20;;;;;21.00;100882.00;;;;5002020;28;20257;-67
2022/06/06 12:03:22;;;;;;;1.63;1.10;;;;;21.30;100874.00;;;;4998218;28;20263;-69
2022/06/06 12:06:34;;;;;;;3.33;2.17;;;;;21.40;100869.00;;;;4998651;28;20296;-68
2022/06/06 12:09:31;;;;;;;1.43;1.00;;;;;21.70;100864.00;;;;4995737;28;20235;-67
2022/06/06 12:12:52;;;;;;;2.73;1.20;;;;;22.10;100854.00;;;;4991477;28;20231;-68
2022/06/06 12:15:52;;;;;;;5.33;1.30;;;;;22.10;100844.00;;;;5000077;28;20277;-68
2022/06/06 12:19:09;;;;;;;2.30;1.50;;;;;22.20;100844.00;;;;5004821;28;20269;-68
2022/06/06 12:22:23;;;;;;;1.83;1.50;;;;;22.60;100845.00;;;;4992232;28;20239;-69
2022/06/06 12:25:40;;;;;;;2.63;1.80;;;;;23.00;100831.00;;;;5003877;28;20302;-69
2022/06/06 12:29:15;;;;;;;3.47;1.40;;;;;23.00;100823.00;;;;5002466;28;20372;-68
2022/06/06 12:32:24;;;;;;;4.63;1.70;;;;;22.70;100829.00;;;;4924187;28;20715;-68
2022/06/06 12:35:20;;;;;;;2.50;1.30;;;;;22.80;100821.00;;;;4995514;28;20320;-67
2022/06/06 12:38:18;;;;;;;2.40;1.40;;;;;23.20;100814.00;;;;4993296;28;20807;-65
2022/06/06 12:41:38;;;;;;;1.87;1.50;;;;;23.50;100816.00;;;;4997082;28;20365;-67
2022/06/06 12:44:53;;;;;;;2.00;1.50;;;;;23.80;100806.00;;;;4999638;28;20238;-68
2022/06/06 12:47:57;;;;;;;1.80;1.30;;;;;23.90;100799.00;;;;5004477;28;20254;-65
2022/06/06 12:50:51;;;;;;;2.30;1.60;;;;;23.90;100798.00;;;;4997999;28;20236;-67
2022/06/06 12:53:57;;;;;;;3.37;1.40;;;;;24.40;100796.00;;;;5002156;28;20241;-70
2022/06/06 12:56:54;;;;;;;1.93;1.47;;;;;24.50;100797.00;;;;4992048;28;20320;-68
2022/06/06 12:59:52;;;;;;;2.33;1.50;;;;;24.70;100779.00;;;;5003244;28;20225;-70
2022/06/06 13:02:53;;;;;;;1.37;1.20;;;;;25.00;100784.00;;;;5002303;28;20266;-70
2022/06/06 13:05:45;;;;;;;2.00;1.50;;;;;25.00;100784.00;;;;5003964;28;20290;-67
2022/06/06 13:08:52;;;;;;;3.30;1.60;;;;;25.20;100773.00;;;;5003638;28;20422;-69
2022/06/06 13:11:48;;;;;;;3.10;1.80;;;;;25.10;100768.00;;;;4997688;28;20742;-70
2022/06/06 13:14:57;;;;;;;3.37;1.50;;;;;24.60;100768.00;;;;4998913;28;20630;-67
2022/06/06 13:17:58;;;;;;;1.57;1.40;;;;;25.10;100755.00;;;;4992745;28;20249;-69
2022/06/06 13:20:51;;;;;;;4.73;1.43;;;;;25.00;100753.00;;;;5001398;28;20278;-66
2022/06/06 13:23:58;;;;;;;2.93;1.47;;;;;25.10;100744.00;;;;5003330;28;20241;-67
2022/06/06 13:26:47;;;;;;;2.53;1.50;;;;;24.80;100740.00;;;;4997028;28;20233;-66
2022/06/06 13:29:36;;;;;;;2.23;1.40;;;;;24.90;100740.00;;;;4995506;28;20242;-70
2022/06/06 13:32:34;;;;;;;1.30;1.20;;;;;24.80;100747.00;;;;5000587;28;20237;-69
2022/06/06 13:35:27;;;;;;;1.47;1.37;;;;;25.10;100749.00;;;;4994376;28;20226;-71
2022/06/06 13:38:31;;;;;;;1.20;1.10;;;;;25.40;100736.00;;;;5001779;28;20342;-70
2022/06/06 13:41:31;;;;;;;1.30;1.20;;;;;25.30;100740.00;;;;5002223;28;20242;-70
2022/06/06 13:44:51;;;;;;;1.20;1.07;;;;;24.80;100747.00;;;;4996981;28;20251;-69
2022/06/06 13:47:59;;;;;;;2.57;1.20;;;;;24.70;100742.00;;;;5004972;28;20375;-70
2022/06/06 13:50:54;;;;;;;3.13;1.40;;;;;24.50;100745.00;;;;4998192;28;20226;-71
2022/06/06 13:54:01;;;;;;;2.17;1.27;;;;;24.10;100746.00;;;;4996564;28;20234;-71
2022/06/06 13:57:04;;;;;;;1.40;1.30;;;;;23.90;100757.00;;;;4996907;28;20242;-71
2022/06/06 14:00:05;;;;;;;3.03;1.40;;;;;23.90;100757.00;;;;5005135;28;20368;-71
2022/06/06 14:03:04;;;;;;;2.27;1.50;;;;;23.80;100744.00;;;;5006654;28;20332;-70
2022/06/06 14:06:14;;;;;;;1.87;1.50;;;;;24.10;100751.00;;;;5004466;28;20297;-70
2022/06/06 14:09:00;;;;;;;1.43;1.30;;;;;24.00;100755.00;;;;5002826;28;20229;-72
2022/06/06 14:12:10;;;;;;;3.60;1.40;;;;;24.20;100745.00;;;;5000644;28;20238;-69
2022/06/06 14:15:02;;;;;;;2.20;1.27;;;;;24.90;100748.00;;;;5002942;28;20226;-70
2022/06/06 14:17:54;;;;;;;1.80;1.20;;;;;25.00;100758.00;;;;5002190;28;20239;-70
2022/06/06 14:20:44;;;;;;;1.90;1.20;;;;;24.70;100748.00;;;;4991648;28;20234;-71
2022/06/06 14:23:33;;;;;;;1.20;1.10;;;;;24.50;100751.00;;;;5006912;28;20826;-71
2022/06/06 14:26:21;;;;;;;1.83;1.10;;;;;24.90;100748.00;;;;5002338;28;20760;-72
2022/06/06 14:29:26;;;;;;;1.50;1.40;;;;;25.30;100751.00;;;;5003399;28;20597;-66
2022/06/06 14:32:21;;;;;;;2.43;1.10;;;;;24.90;100757.00;;;;5001057;28;20238;-68
2022/06/06 14:35:33;;;;;;;1.57;1.10;;;;;25.10;100753.00;;;;4994841;28;20273;-69
2022/06/06 14:38:29;;;;;;;1.83;1.10;;;;;26.50;100760.00;;;;5003662;28;20763;-72
2022/06/06 14:41:17;;;;;;;2.40;1.00;;;;;25.70;100761.00;;;;4988005;28;20778;-69
2022/06/06 14:44:04;;;;;;;4.43;1.10;;;;;25.60;100758.00;;;;4992356;28;20774;-67
2022/06/06 14:46:54;;;;;;;2.63;1.30;;;;;25.90;100754.00;;;;4993343;28;20306;-69
2022/06/06 14:49:43;;;;;;;3.47;1.00;;;;;26.50;100766.00;;;;4998953;28;20779;-70
2022/06/06 14:52:30;;;;;;;2.50;1.00;;;;;26.30;100768.00;;;;4992585;28;20778;-71
2022/06/06 14:55:21;;;;;;;2.37;1.00;;;;;26.50;100758.00;;;;4999791;28;20289;-70
2022/06/06 14:58:08;;;;;;;1.73;1.10;;;;;26.00;100761.00;;;;4993926;28;20898;-70
2022/06/06 15:00:57;;;;;;;3.07;1.10;;;;;25.10;100768.00;;;;5004302;28;20242;-68